Time;durP1;ratioP1;P1;durP2;ratioP2;P2;SDS_P1;SDS_P2;PMS_P1;PMS_P2;Temp;Humidity;BMP_temperature;BMP_pressure;BME280_temperature;BME280_humidity;BME280_pressure;Samples;Min_cycle;Max_cycle;Signal;HPM_P1;HPM_P2
2021/09/17 00:00:29;;;;;;;10.85;7.55;;;;;;;11.82;82.79;100567.31;8545900;34;20189;-72
2021/09/17 00:05:33;;;;;;;10.77;7.72;;;;;;;11.70;83.37;100563.78;8545654;34;20658;-71
2021/09/17 00:10:36;;;;;;;11.20;7.82;;;;;;;11.83;82.65;100560.94;8546298;34;20197;-72
2021/09/17 00:15:41;;;;;;;12.77;8.43;;;;;;;11.77;82.83;100560.59;8546695;34;20131;-72
2021/09/17 00:20:44;;;;;;;13.95;8.48;;;;;;;11.64;83.66;100563.44;8544633;34;20372;-72
2021/09/17 00:25:47;;;;;;;14.93;8.55;;;;;;;11.43;84.35;100558.84;8545709;34;20313;-72
2021/09/17 00:30:52;;;;;;;12.82;9.27;;;;;;;11.43;84.26;100553.47;8551201;34;20777;-71
2021/09/17 00:35:55;;;;;;;17.65;9.88;;;;;;;11.38;84.54;100547.63;8547226;34;20332;-71
2021/09/17 00:40:58;;;;;;;18.35;11.45;;;;;;;11.21;85.31;100540.06;8547329;34;20273;-71
2021/09/17 00:46:03;;;;;;;14.73;10.80;;;;;;;11.22;85.42;100555.22;8545808;34;22054;-71
2021/09/17 00:51:06;;;;;;;15.15;11.07;;;;;;;11.31;85.11;100549.09;8546278;34;21543;-71
2021/09/17 00:56:09;;;;;;;21.45;12.52;;;;;;;11.14;86.07;100550.47;8545733;34;21967;-71
2021/09/17 01:01:14;;;;;;;19.83;13.02;;;;;;;11.33;85.33;100540.91;8545367;34;20440;-71
2021/09/17 01:06:18;;;;;;;19.85;12.48;;;;;;;11.22;85.57;100542.63;8544838;34;20447;-71
2021/09/17 01:11:22;;;;;;;20.40;12.30;;;;;;;11.36;84.93;100541.50;8544100;34;20197;-73
2021/09/17 01:16:26;;;;;;;22.23;12.48;;;;;;;11.33;84.71;100538.22;8543462;34;20267;-71
2021/09/17 01:21:30;;;;;;;20.23;12.13;;;;;;;11.36;84.58;100540.66;8546913;34;20474;-72
2021/09/17 01:26:34;;;;;;;21.45;11.52;;;;;;;11.17;85.53;100536.78;8544159;34;20665;-71
2021/09/17 01:31:37;;;;;;;18.90;12.35;;;;;;;11.17;85.17;100526.03;8545054;34;20248;-71
2021/09/17 01:36:41;;;;;;;21.65;13.15;;;;;;;11.17;85.32;100520.66;8543821;34;20197;-72
2021/09/17 01:41:45;;;;;;;21.42;13.13;;;;;;;11.14;85.71;100512.84;8544535;34;20242;-72
2021/09/17 01:46:49;;;;;;;20.52;12.63;;;;;;;11.06;85.93;100517.94;8543718;34;20300;-72
2021/09/17 01:51:53;;;;;;;20.23;12.88;;;;;;;11.15;85.92;100511.00;8544159;34;20264;-72
2021/09/17 01:56:57;;;;;;;25.13;14.20;;;;;;;11.12;86.41;100512.09;8543369;34;20217;-72
2021/09/17 02:02:00;;;;;;;23.15;13.93;;;;;;;11.32;86.11;100505.06;8543758;34;20279;-72
2021/09/17 02:07:05;;;;;;;23.88;14.75;;;;;;;11.44;86.11;100504.09;8543729;34;20562;-72
2021/09/17 02:12:09;;;;;;;24.80;15.48;;;;;;;11.61;85.64;100505.38;8543669;34;20281;-71
2021/09/17 02:17:12;;;;;;;26.73;16.13;;;;;;;11.88;84.37;100504.03;8542953;34;20193;-71
2021/09/17 02:22:16;;;;;;;25.98;14.38;;;;;;;11.89;84.27;100498.50;8544139;34;20231;-72
2021/09/17 02:27:20;;;;;;;26.90;15.93;;;;;;;12.07;83.89;100497.94;8545456;33;20277;-72
2021/09/17 02:32:23;;;;;;;23.05;14.18;;;;;;;12.02;83.73;100500.16;8548765;33;20200;-71
2021/09/17 02:37:27;;;;;;;25.00;15.43;;;;;;;12.01;83.49;100501.13;8547529;33;20272;-71
2021/09/17 02:42:30;;;;;;;23.23;14.73;;;;;;;12.09;83.12;100495.94;8548239;33;20200;-71
2021/09/17 02:47:34;;;;;;;26.20;15.02;;;;;;;11.99;83.04;100500.44;8547725;33;20205;-72
2021/09/17 02:52:39;;;;;;;27.20;16.00;;;;;;;11.86;83.10;100493.38;8548349;33;20281;-72
2021/09/17 02:57:42;;;;;;;25.02;14.75;;;;;;;11.72;83.85;100493.69;8547329;33;20200;-71
2021/09/17 03:02:45;;;;;;;23.50;15.05;;;;;;;11.79;83.75;100485.94;8548353;33;20747;-72
2021/09/17 03:07:50;;;;;;;28.15;15.25;;;;;;;11.86;83.37;100496.06;8549221;33;20217;-72
2021/09/17 03:12:53;;;;;;;25.00;14.75;;;;;;;11.91;83.26;100493.84;8548534;33;20248;-71
2021/09/17 03:17:57;;;;;;;26.67;14.82;;;;;;;11.95;83.39;100486.34;8548993;33;20229;-72
2021/09/17 03:23:01;;;;;;;24.88;14.75;;;;;;;12.02;83.06;100479.47;8548329;33;20166;-72
2021/09/17 03:28:05;;;;;;;21.13;14.25;;;;;;;12.07;83.19;100482.63;8546699;33;20147;-72
2021/09/17 03:33:09;;;;;;;24.52;13.95;;;;;;;12.14;83.10;100489.19;8547709;33;20201;-72
2021/09/17 03:38:14;;;;;;;22.58;14.38;;;;;;;12.17;82.85;100486.22;8547947;33;20231;-72
2021/09/17 03:43:17;;;;;;;22.95;13.98;;;;;;;12.22;82.83;100479.59;8546469;33;20339;-71
2021/09/17 03:48:21;;;;;;;22.75;13.80;;;;;;;12.15;82.80;100477.44;8546740;33;20897;-71
2021/09/17 03:53:25;;;;;;;24.58;14.43;;;;;;;12.07;82.83;100471.00;8546429;33;20277;-71
2021/09/17 03:58:28;;;;;;;24.73;15.38;;;;;;;11.97;83.05;100468.25;8545716;33;20146;-72
2021/09/17 04:03:31;;;;;;;27.63;14.30;;;;;;;11.91;83.37;100471.47;8546806;33;20147;-71
2021/09/17 04:08:36;;;;;;;25.08;15.20;;;;;;;11.90;83.50;100469.75;8546064;33;20220;-71
2021/09/17 04:13:39;;;;;;;26.45;15.48;;;;;;;11.87;83.57;100467.31;8545951;33;20197;-72
2021/09/17 04:18:42;;;;;;;24.63;14.98;;;;;;;11.87;83.80;100467.31;8545664;33;20491;-71
2021/09/17 04:23:47;;;;;;;31.80;18.08;;;;;;;11.88;83.77;100471.72;8546025;33;20173;-71
2021/09/17 04:28:50;;;;;;;29.60;17.02;;;;;;;11.92;83.66;100467.78;8545225;33;20225;-71
2021/09/17 04:33:53;;;;;;;34.92;19.58;;;;;;;11.86;83.74;100468.31;8545709;33;20317;-72
2021/09/17 04:38:57;;;;;;;29.80;18.58;;;;;;;11.83;83.72;100463.19;8544768;33;20192;-72
2021/09/17 04:44:00;;;;;;;37.10;19.95;;;;;;;11.78;83.71;100468.97;8544974;33;20254;-71
2021/09/17 04:49:04;;;;;;;37.80;19.25;;;;;;;11.75;84.01;100474.59;8545178;33;20190;-72
2021/09/17 04:54:09;;;;;;;31.92;18.30;;;;;;;11.81;84.05;100481.31;8544664;33;20186;-72
2021/09/17 04:59:16;;;;;;;34.53;19.73;;;;;;;11.89;83.92;100490.44;8544656;33;20707;-73
2021/09/17 05:04:20;;;;;;;35.83;20.50;;;;;;;11.90;83.78;100491.28;8546174;33;20238;-72
2021/09/17 05:09:24;;;;;;;34.33;20.05;;;;;;;11.86;83.73;100489.84;8545968;33;20186;-72
2021/09/17 05:14:27;;;;;;;34.80;19.00;;;;;;;11.87;84.17;100486.16;8544595;33;21219;-72
2021/09/17 05:19:30;;;;;;;35.30;19.95;;;;;;;11.80;83.89;100485.00;8548210;33;21005;-71
2021/09/17 05:24:35;;;;;;;38.10;20.58;;;;;;;11.83;83.99;100485.56;8544035;33;20958;-72
2021/09/17 05:29:38;;;;;;;31.30;19.42;;;;;;;11.87;83.81;100492.38;8544595;33;20711;-71
2021/09/17 05:34:41;;;;;;;39.10;21.60;;;;;;;11.97;83.89;100489.78;8543900;33;20293;-71
2021/09/17 05:39:45;;;;;;;39.55;19.55;;;;;;;12.04;83.74;100493.66;8544548;33;20412;-71
2021/09/17 05:44:48;;;;;;;34.28;19.17;;;;;;;12.19;83.75;100498.72;8544019;33;20205;-71
2021/09/17 05:49:51;;;;;;;35.95;20.02;;;;;;;12.23;83.14;100490.25;8543708;33;20185;-71
2021/09/17 05:54:56;;;;;;;32.08;19.20;;;;;;;12.12;83.75;100496.56;8542818;33;20146;-71
2021/09/17 05:59:59;;;;;;;35.92;19.50;;;;;;;12.17;83.64;100498.84;8542515;33;20691;-71
2021/09/17 06:05:03;;;;;;;32.03;17.77;;;;;;;12.26;83.34;100498.06;8543469;33;20285;-71
2021/09/17 06:10:09;;;;;;;31.88;19.58;;;;;;;12.17;83.62;100494.28;8542750;33;20709;-71
2021/09/17 06:15:16;;;;;;;33.70;19.17;;;;;;;12.42;83.06;100497.59;8541891;34;20178;-71
2021/09/17 06:20:19;;;;;;;32.05;18.98;;;;;;;12.48;82.65;100490.81;8542858;34;20200;-72
2021/09/17 06:25:24;;;;;;;38.13;20.10;;;;;;;12.58;82.42;100495.25;8542179;34;20194;-71
2021/09/17 06:30:27;;;;;;;32.67;19.02;;;;;;;12.65;82.33;100495.59;8541898;33;20285;-71
2021/09/17 06:35:30;;;;;;;34.03;19.70;;;;;;;12.45;82.71;100497.34;8538364;33;20985;-71
2021/09/17 06:40:35;;;;;;;36.35;19.77;;;;;;;12.88;81.62;100492.69;8541842;33;20245;-71
2021/09/17 06:45:38;;;;;;;33.35;19.30;;;;;;;12.95;81.38;100496.56;8541143;33;20595;-71
2021/09/17 06:50:41;;;;;;;33.85;19.15;;;;;;;13.03;81.08;100494.88;8542496;33;20486;-72
2021/09/17 06:55:46;;;;;;;34.30;19.65;;;;;;;13.33;80.43;100498.50;8541229;33;20536;-72
2021/09/17 07:00:49;;;;;;;30.70;18.58;;;;;;;13.36;80.64;100491.97;8542311;33;21505;-72
2021/09/17 07:05:52;;;;;;;31.00;18.65;;;;;;;13.38;80.63;100501.63;8542513;33;21459;-72
2021/09/17 07:10:57;;;;;;;32.20;19.13;;;;;;;13.30;80.64;100497.91;8543345;33;20237;-72
2021/09/17 07:16:00;;;;;;;31.98;18.17;;;;;;;13.45;80.50;100496.56;8547074;33;21564;-72
2021/09/17 07:21:03;;;;;;;30.27;18.27;;;;;;;13.64;80.31;100491.16;8546558;33;20872;-72
2021/09/17 07:26:07;;;;;;;19.92;11.82;;;;;;;14.08;79.29;100491.56;8546720;33;20437;-72
2021/09/17 07:31:11;;;;;;;24.27;15.65;;;;;;;14.14;78.13;100503.63;8546862;33;20378;-72
2021/09/17 07:36:15;;;;;;;20.38;11.40;;;;;;;14.23;78.26;100502.75;8548653;33;20189;-72
2021/09/17 07:41:19;;;;;;;26.98;15.05;;;;;;;14.63;77.42;100498.16;8547103;34;20190;-71
2021/09/17 07:46:22;;;;;;;26.38;14.98;;;;;;;14.68;76.29;100496.69;8546457;34;20173;-72
2021/09/17 07:51:25;;;;;;;29.83;16.60;;;;;;;14.29;77.85;100496.78;8547349;34;20151;-72
2021/09/17 07:56:30;;;;;;;20.50;11.90;;;;;;;14.80;76.29;100506.31;8545575;34;20217;-71
2021/09/17 08:01:33;;;;;;;26.08;15.65;;;;;;;14.86;76.82;100510.28;8546085;34;21524;-73
2021/09/17 08:06:38;;;;;;;27.10;16.27;;;;;;;14.74;77.40;100506.91;8546356;34;20952;-72
2021/09/17 08:11:43;;;;;;;31.77;16.52;;;;;;;14.72;76.87;100514.31;8547768;34;20676;-72
2021/09/17 08:16:47;;;;;;;28.70;17.83;;;;;;;15.00;76.53;100509.81;8546229;34;20181;-72
2021/09/17 08:21:50;;;;;;;27.00;16.38;;;;;;;15.04;76.13;100519.31;8546492;34;20182;-72
2021/09/17 08:26:56;;;;;;;28.67;16.70;;;;;;;14.97;75.92;100518.19;8544859;34;20197;-72
2021/09/17 08:31:59;;;;;;;24.73;14.93;;;;;;;14.68;76.96;100515.63;8545097;33;20683;-73
2021/09/17 08:37:07;;;;;;;26.85;15.80;;;;;;;14.74;76.43;100520.44;8545285;33;20523;-73
2021/09/17 08:42:13;;;;;;;28.20;16.85;;;;;;;15.28;75.56;100515.19;8545312;33;20629;-72
2021/09/17 08:47:18;;;;;;;24.73;15.55;;;;;;;15.96;73.60;100511.97;8544728;33;20583;-72
2021/09/17 08:52:21;;;;;;;22.48;14.23;;;;;;;15.93;71.79;100526.72;8545463;33;20260;-72
2021/09/17 08:57:26;;;;;;;24.45;14.82;;;;;;;15.65;73.22;100514.25;8544271;33;20734;-72
2021/09/17 09:02:30;;;;;;;22.45;14.18;;;;;;;15.29;73.70;100521.47;8545195;33;22584;-72
2021/09/17 09:07:38;;;;;;;21.02;13.23;;;;;;;15.63;73.51;100517.13;8544328;33;20450;-72
2021/09/17 09:12:45;;;;;;;19.60;13.15;;;;;;;16.07;72.55;100506.34;8544790;33;20194;-72
2021/09/17 09:17:49;;;;;;;19.75;13.52;;;;;;;16.38;70.82;100503.22;8544769;33;20453;-72
2021/09/17 09:23:18;;;;;;;17.45;11.48;;;;;;;16.10;70.54;100492.47;8543731;33;20287;-71
2021/09/17 09:28:26;;;;;;;19.00;10.82;;;;;;;16.19;70.72;100497.97;8544321;33;20182;-73
2021/09/17 09:33:33;;;;;;;16.80;10.38;;;;;;;15.66;71.41;100500.56;8543142;33;20281;-72
2021/09/17 09:38:43;;;;;;;13.68;10.70;;;;;;;15.63;70.88;100497.31;8544241;33;20194;-72
2021/09/17 09:43:53;;;;;;;15.05;10.40;;;;;;;16.27;69.75;100495.34;8543928;33;20348;-72
2021/09/17 09:49:07;;;;;;;17.38;10.43;;;;;;;16.27;70.41;100495.34;8541493;33;20256;-72
2021/09/17 09:54:12;;;;;;;14.68;10.05;;;;;;;16.67;69.07;100488.44;8539206;33;20328;-72
2021/09/17 09:59:19;;;;;;;17.90;12.07;;;;;;;16.53;69.82;100489.91;8541866;33;20190;-72
2021/09/17 10:04:24;;;;;;;19.40;12.23;;;;;;;16.92;69.38;100483.97;8537835;33;20286;-73
2021/09/17 10:09:27;;;;;;;19.33;12.85;;;;;;;17.02;67.81;100490.13;8540334;33;20321;-72
2021/09/17 10:14:33;;;;;;;25.48;15.25;;;;;;;16.95;67.68;100476.38;8538559;34;20233;-72
2021/09/17 10:19:37;;;;;;;21.83;13.43;;;;;;;17.98;65.85;100469.81;8543063;34;20147;-72
2021/09/17 10:24:43;;;;;;;19.85;12.00;;;;;;;17.72;63.93;100486.25;8541733;33;20559;-72
2021/09/17 10:29:59;;;;;;;19.98;13.00;;;;;;;17.21;65.89;100486.34;8542419;33;20229;-71
2021/09/17 10:35:10;;;;;;;17.45;11.82;;;;;;;18.23;63.73;100484.22;8542350;33;20517;-72
2021/09/17 10:40:15;;;;;;;18.88;13.10;;;;;;;17.82;65.05;100490.50;8542993;33;22079;-71
2021/09/17 10:45:19;;;;;;;18.77;13.38;;;;;;;17.88;64.78;100486.25;8542986;33;20244;-72
2021/09/17 10:50:49;;;;;;;23.20;14.93;;;;;;;18.20;64.07;100479.16;8548078;33;20297;-71
2021/09/17 10:56:03;;;;;;;20.75;14.68;;;;;;;18.31;64.80;100481.50;8547113;33;20637;-71
2021/09/17 11:01:10;;;;;;;20.17;13.23;;;;;;;18.25;62.78;100483.03;8547277;33;20220;-71
2021/09/17 11:06:29;;;;;;;16.02;11.23;;;;;;;19.93;57.15;100480.06;8547001;33;21727;-71
2021/09/17 11:11:38;;;;;;;17.52;12.45;;;;;;;19.94;57.60;100469.00;8547194;33;20289;-71
2021/09/17 11:16:46;;;;;;;17.20;12.48;;;;;;;20.47;56.20;100469.00;8546379;33;20222;-71
2021/09/17 11:21:51;;;;;;;18.77;12.00;;;;;;;19.48;58.40;100468.97;8546819;33;20232;-73
2021/09/17 11:26:57;;;;;;;16.83;11.23;;;;;;;19.50;59.44;100461.47;8545973;33;20221;-72
2021/09/17 11:32:03;;;;;;;20.30;12.80;;;;;;;18.58;60.95;100464.78;8546758;33;20194;-72
2021/09/17 11:37:08;;;;;;;17.45;12.25;;;;;;;19.80;58.92;100454.28;8546522;33;20142;-72
2021/09/17 11:42:15;;;;;;;15.48;12.75;;;;;;;20.30;56.52;100451.94;8546104;33;20186;-72
2021/09/17 11:47:26;;;;;;;16.73;12.23;;;;;;;20.11;56.93;100454.16;8567706;33;20153;-72
2021/09/17 11:52:29;;;;;;;15.90;11.40;;;;;;;19.27;59.24;100457.88;8546205;33;21185;-72
2021/09/17 11:57:39;;;;;;;17.73;12.60;;;;;;;18.02;62.57;100453.00;8545604;33;20236;-73
2021/09/17 12:02:45;;;;;;;21.52;14.38;;;;;;;17.03;65.46;100459.25;8547615;33;20204;-72
2021/09/17 12:07:51;;;;;;;18.23;13.50;;;;;;;17.18;65.95;100452.22;8547849;33;20208;-72
2021/09/17 12:13:01;;;;;;;19.50;13.95;;;;;;;17.66;64.22;100447.91;8546349;33;20219;-72
2021/09/17 12:18:07;;;;;;;20.77;14.02;;;;;;;17.58;64.32;100441.59;8544943;33;20359;-72
2021/09/17 12:23:12;;;;;;;20.13;13.65;;;;;;;17.46;63.87;100443.78;8545245;34;20751;-72
2021/09/17 12:28:21;;;;;;;18.77;13.35;;;;;;;17.11;65.00;100440.28;8545218;34;20182;-72
2021/09/17 12:33:32;;;;;;;19.48;13.95;;;;;;;17.50;64.38;100444.28;8545170;34;20189;-72
2021/09/17 12:38:35;;;;;;;20.77;13.70;;;;;;;17.08;66.05;100447.91;8545102;34;20182;-72
2021/09/17 12:43:39;;;;;;;24.35;14.35;;;;;;;17.15;66.36;100451.72;8542479;33;20197;-73
2021/09/17 12:48:47;;;;;;;19.23;13.73;;;;;;;17.06;66.75;100449.94;8544995;33;20200;-71
2021/09/17 12:53:50;;;;;;;18.65;12.95;;;;;;;17.20;66.66;100450.19;8543452;33;20178;-71
2021/09/17 12:59:08;;;;;;;16.80;12.32;;;;;;;17.19;66.66;100448.47;8544120;33;20173;-72
2021/09/17 13:04:12;;;;;;;16.48;11.93;;;;;;;17.27;66.66;100436.78;8545451;34;20196;-71
2021/09/17 13:09:15;;;;;;;17.80;12.35;;;;;;;17.27;66.36;100431.38;8545309;34;20246;-71
2021/09/17 13:14:19;;;;;;;16.33;11.70;;;;;;;17.14;66.43;100439.13;8544049;34;20185;-71
2021/09/17 13:19:23;;;;;;;19.15;13.20;;;;;;;17.16;66.45;100442.53;8543671;33;20190;-71
2021/09/17 13:24:26;;;;;;;18.70;11.27;;;;;;;16.29;69.40;100445.38;8543081;33;20499;-71
2021/09/17 13:29:29;;;;;;;20.65;13.57;;;;;;;16.12;72.34;100440.81;8544644;33;20464;-72
2021/09/17 13:34:34;;;;;;;20.17;13.05;;;;;;;15.67;75.30;100436.44;8543621;33;20150;-72
2021/09/17 13:39:37;;;;;;;18.17;13.13;;;;;;;15.69;78.18;100432.56;8544630;33;20347;-71
2021/09/17 13:44:40;;;;;;;18.52;12.30;;;;;;;15.69;77.29;100429.00;8543142;33;21293;-72
2021/09/17 13:49:45;;;;;;;21.83;12.55;;;;;;;15.96;77.55;100422.59;8543367;33;20285;-72
2021/09/17 13:54:48;;;;;;;17.67;12.30;;;;;;;16.55;76.42;100420.94;8537888;33;20818;-72
2021/09/17 13:59:51;;;;;;;17.00;12.13;;;;;;;17.11;73.93;100412.31;8542499;33;20399;-71
2021/09/17 14:04:56;;;;;;;16.48;11.18;;;;;;;17.58;77.28;100414.41;8543410;33;20201;-71
2021/09/17 14:09:59;;;;;;;18.23;12.05;;;;;;;16.89;71.23;100411.91;8543583;33;20573;-71
2021/09/17 14:15:03;;;;;;;15.90;10.68;;;;;;;17.23;75.27;100414.56;8543230;33;20185;-71
2021/09/17 14:20:10;;;;;;;16.83;11.68;;;;;;;17.60;77.53;100410.53;8544165;33;20151;-71
2021/09/17 14:25:13;;;;;;;16.90;12.35;;;;;;;17.54;73.73;100419.34;8542172;33;20193;-71
2021/09/17 14:30:17;;;;;;;19.50;12.77;;;;;;;17.44;75.44;100414.09;8543648;33;20193;-71
2021/09/17 14:35:21;;;;;;;16.92;11.60;;;;;;;17.31;77.33;100408.31;8543259;33;20782;-71
2021/09/17 14:40:28;;;;;;;20.73;13.50;;;;;;;16.92;79.14;100395.31;8542832;33;20185;-71
2021/09/17 14:51:56;;;;;;;21.17;14.25;;;;;;;15.96;84.96;100410.91;8571765;34;20322;-75
2021/09/17 14:56:59;;;;;;;24.23;14.88;;;;;;;15.99;85.62;100400.63;8583816;34;20142;-75
2021/09/17 15:02:02;;;;;;;21.52;14.35;;;;;;;16.18;85.14;100396.84;8577362;34;20307;-76
2021/09/17 15:07:07;;;;;;;23.17;16.20;;;;;;;16.81;84.60;100393.75;8577182;34;20150;-76
2021/09/17 15:12:10;;;;;;;19.85;14.02;;;;;;;18.05;83.34;100406.47;8577062;34;20225;-75
2021/09/17 15:17:13;;;;;;;18.42;12.73;;;;;;;18.20;80.58;100405.75;8569833;34;20457;-76
2021/09/17 15:22:18;;;;;;;16.08;12.25;;;;;;;17.91;79.30;100399.81;8578482;34;20754;-74
2021/09/17 15:27:21;;;;;;;16.02;11.60;;;;;;;17.58;79.64;100399.00;8577582;34;20146;-74
2021/09/17 15:32:23;;;;;;;16.25;11.18;;;;;;;17.53;80.07;100395.09;8577788;34;20143;-73
2021/09/17 15:37:28;;;;;;;15.20;10.02;;;;;;;17.72;79.88;100388.44;8597723;33;20172;-73
2021/09/17 15:42:31;;;;;;;15.27;11.00;;;;;;;18.02;79.02;100386.91;8605261;33;20185;-73
2021/09/17 15:47:34;;;;;;;15.27;10.07;;;;;;;17.97;77.74;100394.72;8605912;33;20184;-73
2021/09/17 15:52:40;;;;;;;14.82;10.05;;;;;;;17.88;77.43;100380.28;8606549;33;20630;-73
2021/09/17 15:57:43;;;;;;;16.73;9.85;;;;;;;17.65;76.56;100383.69;8604771;33;21032;-73
2021/09/17 16:02:47;;;;;;;16.92;10.90;;;;;;;17.51;75.84;100384.38;8604609;33;20199;-74
2021/09/17 16:07:52;;;;;;;16.55;11.32;;;;;;;17.51;74.27;100381.69;8606445;33;20524;-73
2021/09/17 16:12:55;;;;;;;15.40;10.93;;;;;;;17.96;74.00;100387.56;8605500;33;20607;-74
2021/09/17 16:17:59;;;;;;;16.90;10.73;;;;;;;18.43;71.32;100381.34;8603495;33;20241;-75
2021/09/17 16:23:04;;;;;;;13.88;10.15;;;;;;;18.33;70.19;100385.13;8595234;33;20314;-74
2021/09/17 16:28:08;;;;;;;12.43;9.75;;;;;;;17.76;71.00;100392.53;8602578;33;20178;-72
2021/09/17 16:33:12;;;;;;;13.57;10.93;;;;;;;17.26;72.57;100386.25;8601978;33;20166;-74
2021/09/17 16:38:16;;;;;;;14.70;9.82;;;;;;;16.97;73.82;100389.38;8603891;33;20232;-75
2021/09/17 16:43:20;;;;;;;13.80;9.85;;;;;;;16.77;74.08;100386.09;8602538;33;20191;-75
2021/09/17 16:48:26;;;;;;;15.00;10.82;;;;;;;16.69;75.08;100386.09;8601206;33;20187;-75
2021/09/17 16:53:32;;;;;;;14.77;10.43;;;;;;;16.59;75.33;100395.22;8595738;33;20774;-74
2021/09/17 16:58:37;;;;;;;16.73;11.35;;;;;;;16.33;75.69;100402.53;8603282;33;20185;-75
2021/09/17 17:03:41;;;;;;;23.02;12.13;;;;;;;16.31;75.67;100396.41;8601736;33;20237;-74
2021/09/17 17:08:46;;;;;;;19.85;12.55;;;;;;;16.28;75.77;100388.63;8602651;33;20168;-74
2021/09/17 17:13:49;;;;;;;17.23;10.73;;;;;;;16.18;76.37;100388.72;8602670;33;20176;-74
2021/09/17 17:18:54;;;;;;;18.38;11.80;;;;;;;15.96;77.31;100389.22;8601330;33;20225;-74
2021/09/17 17:23:58;;;;;;;17.83;12.77;;;;;;;15.83;78.33;100400.50;8603899;33;20181;-74
2021/09/17 17:29:01;;;;;;;15.77;11.50;;;;;;;15.75;79.10;100395.88;8602427;33;20360;-74
2021/09/17 17:34:05;;;;;;;16.73;12.02;;;;;;;15.69;79.38;100394.66;8602231;33;20193;-73
2021/09/17 17:39:09;;;;;;;18.50;11.77;;;;;;;15.63;80.04;100395.28;8601954;33;20283;-73
2021/09/17 17:44:13;;;;;;;20.65;12.25;;;;;;;15.61;80.38;100391.03;8621356;33;20197;-73
2021/09/17 17:49:16;;;;;;;18.52;13.38;;;;;;;15.58;79.95;100397.59;8626195;33;20431;-73
2021/09/17 17:54:20;;;;;;;21.85;14.07;;;;;;;15.56;79.75;100398.78;8604405;33;20457;-73
2021/09/17 17:59:24;;;;;;;18.73;13.43;;;;;;;15.54;79.74;100395.38;8601121;33;20204;-72
2021/09/17 18:04:27;;;;;;;19.67;13.73;;;;;;;15.48;79.69;100404.97;8601166;33;20765;-75
2021/09/17 18:09:32;;;;;;;23.45;14.80;;;;;;;15.34;79.52;100414.47;8603006;33;20242;-73
2021/09/17 18:14:35;;;;;;;25.23;15.77;;;;;;;15.24;80.17;100417.22;8601583;33;20939;-73
2021/09/17 18:19:38;;;;;;;20.10;13.77;;;;;;;15.09;80.72;100416.06;8603645;33;20199;-74
2021/09/17 18:24:42;;;;;;;20.90;13.23;;;;;;;14.96;81.18;100421.81;8602876;33;20482;-75
2021/09/17 18:29:45;;;;;;;21.55;13.75;;;;;;;14.78;81.49;100427.22;8603264;33;20192;-75
2021/09/17 18:34:49;;;;;;;22.25;15.00;;;;;;;14.69;82.07;100432.66;8601368;33;20185;-74
2021/09/17 18:39:54;;;;;;;23.75;14.95;;;;;;;14.62;82.35;100437.81;8601314;33;20263;-74
2021/09/17 18:44:59;;;;;;;27.52;17.40;;;;;;;14.71;82.60;100431.50;8600832;33;20208;-73
2021/09/17 18:50:05;;;;;;;25.00;16.98;;;;;;;14.72;82.45;100432.34;8600502;33;20531;-74
2021/09/17 18:55:10;;;;;;;27.40;17.58;;;;;;;14.86;82.38;100433.69;8601319;33;20323;-74
2021/09/17 19:00:14;;;;;;;32.22;17.75;;;;;;;14.91;82.03;100434.09;8601697;33;20216;-73
2021/09/17 19:05:18;;;;;;;25.80;16.25;;;;;;;14.74;81.82;100443.88;8600311;33;20251;-73
2021/09/17 19:10:24;;;;;;;24.33;15.65;;;;;;;14.59;82.36;100444.38;8603256;33;20170;-73
2021/09/17 19:15:29;;;;;;;23.42;15.02;;;;;;;14.56;82.65;100446.50;8604875;33;20208;-73
2021/09/17 19:20:35;;;;;;;24.92;15.63;;;;;;;14.50;82.26;100447.97;8606541;33;20276;-74
2021/09/17 19:25:40;;;;;;;24.58;16.30;;;;;;;14.47;82.49;100439.31;8605245;33;20260;-74
2021/09/17 19:30:43;;;;;;;23.40;14.73;;;;;;;14.39;82.55;100442.75;8604909;33;20189;-74
2021/09/17 19:35:46;;;;;;;24.42;15.85;;;;;;;14.29;82.65;100452.69;8603438;33;21620;-74
2021/09/17 19:40:51;;;;;;;24.67;16.67;;;;;;;14.22;82.68;100451.59;8604640;33;20713;-74
2021/09/17 19:45:54;;;;;;;22.58;15.18;;;;;;;14.14;83.20;100455.00;8604398;33;20653;-74
2021/09/17 19:50:58;;;;;;;28.60;17.83;;;;;;;14.07;83.02;100464.69;8604449;33;20189;-74
2021/09/17 19:56:08;;;;;;;27.95;17.88;;;;;;;14.04;83.23;100462.28;8603972;33;20654;-74
2021/09/17 20:01:13;;;;;;;25.67;16.95;;;;;;;14.00;83.26;100464.44;8604804;33;20173;-74
2021/09/17 20:06:17;;;;;;;24.52;15.88;;;;;;;13.80;83.20;100463.59;8603921;33;20193;-74
2021/09/17 20:11:23;;;;;;;28.05;16.83;;;;;;;13.71;84.01;100464.44;8604726;33;20246;-73
2021/09/17 20:16:26;;;;;;;26.10;17.00;;;;;;;13.74;83.72;100472.28;8604103;33;20709;-73
2021/09/17 20:21:29;;;;;;;25.45;16.40;;;;;;;13.64;83.34;100472.28;8604372;33;20286;-73
2021/09/17 20:26:33;;;;;;;22.10;15.10;;;;;;;13.53;83.87;100480.50;8601319;33;20205;-73
2021/09/17 20:31:40;;;;;;;23.75;15.68;;;;;;;13.48;83.97;100475.53;8604417;33;20160;-73
2021/09/17 20:36:44;;;;;;;25.65;16.13;;;;;;;13.42;83.97;100486.91;8603321;33;20865;-73
2021/09/17 20:41:49;;;;;;;25.73;16.75;;;;;;;13.34;84.16;100483.16;8604606;33;20220;-74
2021/09/17 20:46:52;;;;;;;28.05;16.92;;;;;;;13.29;84.05;100488.97;8602967;33;20227;-73
2021/09/17 20:51:55;;;;;;;26.00;16.35;;;;;;;13.24;84.32;100485.84;8603151;33;20221;-74
2021/09/17 20:56:59;;;;;;;24.83;15.65;;;;;;;13.19;84.19;100480.00;8601063;33;20193;-73
2021/09/17 21:02:02;;;;;;;26.67;16.80;;;;;;;13.17;84.37;100485.53;8602499;33;20259;-74
2021/09/17 21:07:06;;;;;;;25.67;16.45;;;;;;;13.10;83.96;100492.47;8600931;33;20185;-74
2021/09/17 21:12:12;;;;;;;27.67;17.35;;;;;;;13.07;83.98;100495.44;8602019;33;20185;-74
2021/09/17 21:17:15;;;;;;;27.85;17.17;;;;;;;13.04;83.92;100499.28;8601163;33;22096;-74
2021/09/17 21:22:18;;;;;;;31.63;17.95;;;;;;;12.97;83.99;100497.25;8602016;33;20195;-74
2021/09/17 21:27:23;;;;;;;28.38;17.52;;;;;;;12.87;84.17;100494.53;8598826;33;20388;-74
2021/09/17 21:32:27;;;;;;;26.02;16.48;;;;;;;12.82;83.94;100496.78;8596909;33;20447;-74
2021/09/17 21:37:30;;;;;;;25.13;15.57;;;;;;;12.77;83.88;100509.81;8570489;33;20176;-74
2021/09/17 21:42:35;;;;;;;22.38;14.98;;;;;;;12.73;83.94;100505.72;8600414;33;20605;-74
2021/09/17 21:47:39;;;;;;;23.35;14.88;;;;;;;12.65;83.82;100505.53;8599876;33;20221;-74
2021/09/17 21:52:42;;;;;;;23.52;15.13;;;;;;;12.58;83.89;100507.88;8599550;33;20284;-74
2021/09/17 21:57:46;;;;;;;20.95;14.30;;;;;;;12.58;83.93;100508.75;8600748;33;20247;-74
2021/09/17 22:02:49;;;;;;;23.10;14.15;;;;;;;12.57;83.98;100512.44;8601672;33;20134;-74
2021/09/17 22:07:53;;;;;;;22.70;13.18;;;;;;;12.58;83.58;100514.13;8599712;33;20295;-73
2021/09/17 22:12:57;;;;;;;19.50;12.68;;;;;;;12.56;83.54;100513.44;8600272;33;20149;-74
2021/09/17 22:18:00;;;;;;;21.08;13.27;;;;;;;12.51;83.48;100510.28;8599895;33;20188;-74
2021/09/17 22:23:04;;;;;;;21.67;13.23;;;;;;;12.43;83.42;100512.78;8599840;33;20197;-73
2021/09/17 22:28:09;;;;;;;20.60;12.90;;;;;;;12.40;83.68;100510.38;8600061;33;21368;-74
2021/09/17 22:33:12;;;;;;;19.90;13.65;;;;;;;12.40;83.61;100521.13;8599988;33;20158;-73
2021/09/17 22:38:15;;;;;;;17.52;12.20;;;;;;;12.39;83.41;100520.25;8600572;33;20263;-73
2021/09/17 22:43:21;;;;;;;17.65;12.43;;;;;;;12.41;83.31;100524.69;8601541;33;20239;-73
2021/09/17 22:48:24;;;;;;;20.90;13.20;;;;;;;12.41;83.39;100517.44;8604664;33;20146;-74
2021/09/17 22:53:27;;;;;;;14.07;10.30;;;;;;;12.28;82.92;100523.03;8604541;33;20189;-74
2021/09/17 22:58:32;;;;;;;16.25;11.05;;;;;;;12.15;82.73;100519.69;8607344;33;20224;-74
2021/09/17 23:03:35;;;;;;;17.08;11.48;;;;;;;12.07;82.62;100520.31;8649438;33;20196;-73
2021/09/17 23:08:38;;;;;;;17.08;11.15;;;;;;;12.03;82.72;100526.09;8631084;33;20689;-73